createdAt,value
2019-01-22T00:00:35.351Z,98059.50
2019-01-22T00:03:03.754Z,98054.48
2019-01-22T00:05:32.157Z,98047.41
2019-01-22T00:08:00.576Z,98044.16
2019-01-22T00:10:28.979Z,98044.55
2019-01-22T00:12:57.379Z,98043.72
2019-01-22T00:15:26.405Z,98029.55
2019-01-22T00:17:54.808Z,98026.14
2019-01-22T00:20:23.468Z,98023.60
2019-01-22T00:22:52.155Z,98023.80
2019-01-22T00:25:20.623Z,98020.27
2019-01-22T00:27:49.028Z,98017.58
2019-01-22T00:30:20.054Z,98016.08
2019-01-22T00:32:48.543Z,98011.45
2019-01-22T00:35:17.569Z,98008.32
2019-01-22T00:37:46.062Z,98005.42
2019-01-22T00:40:17.003Z,98009.70
2019-01-22T00:42:45.916Z,97997.28
2019-01-22T00:45:14.903Z,97999.53
2019-01-22T00:47:43.367Z,97992.80
2019-01-22T00:50:14.764Z,97992.52
2019-01-22T00:52:43.183Z,97991.84
2019-01-22T00:55:14.102Z,97987.22
2019-01-22T00:57:42.812Z,97990.06
2019-01-22T01:00:29.074Z,97988.00
2019-01-22T01:02:57.472Z,97991.08
2019-01-22T01:05:26.747Z,97991.75
2019-01-22T01:07:55.510Z,97992.39
2019-01-22T01:10:24.247Z,97996.41
2019-01-22T01:12:52.644Z,97988.17
2019-01-22T01:15:21.895Z,97996.25
2019-01-22T01:17:50.297Z,97986.86
2019-01-22T01:20:21.119Z,97987.02
2019-01-22T01:22:49.971Z,97978.11
2019-01-22T01:25:20.773Z,97980.75
2019-01-22T01:27:49.430Z,97981.50
2019-01-22T01:30:22.866Z,97984.02
2019-01-22T01:32:51.781Z,97982.55
2019-01-22T01:35:20.487Z,97977.86
2019-01-22T01:37:48.973Z,97979.64
2019-01-22T01:40:18.411Z,97981.06
2019-01-22T01:42:46.875Z,97979.94
2019-01-22T01:45:16.130Z,97980.45
2019-01-22T01:47:45.083Z,97971.67
2019-01-22T01:50:15.522Z,97972.42
2019-01-22T01:52:43.933Z,97970.44
2019-01-22T01:55:14.807Z,97967.61
2019-01-22T01:57:43.206Z,97966.83
2019-01-22T02:00:19.986Z,97961.98
2019-01-22T02:02:48.844Z,97961.45
2019-01-22T02:05:17.556Z,97957.70
2019-01-22T02:07:45.976Z,97952.09
2019-01-22T02:10:21.845Z,97957.66
2019-01-22T02:12:59.270Z,97961.00
2019-01-22T02:15:47.565Z,97958.92
2019-01-22T02:18:27.667Z,97952.72
2019-01-22T02:21:10.779Z,97945.45
2019-01-22T02:24:04.984Z,97940.89
2019-01-22T02:26:57.834Z,97939.24
2019-01-22T02:29:41.271Z,97928.94
2019-01-22T02:32:15.191Z,97927.59
2019-01-22T02:34:52.378Z,97922.39
2019-01-22T02:37:38.700Z,97915.86
2019-01-22T02:40:12.633Z,97910.00
2019-01-22T02:43:00.588Z,97907.17
2019-01-22T02:45:49.504Z,97900.69
2019-01-22T02:48:21.207Z,97899.23
2019-01-22T02:51:07.025Z,97896.70
2019-01-22T02:53:41.519Z,97887.39
2019-01-22T02:56:12.990Z,97883.35
2019-01-22T02:59:01.996Z,97874.41
2019-01-22T03:01:36.226Z,97871.26
2019-01-22T03:04:10.502Z,97868.81
2019-01-22T03:07:04.604Z,97867.62
2019-01-22T03:09:54.544Z,97859.06
2019-01-22T03:12:28.868Z,97852.09
2019-01-22T03:15:14.584Z,97853.30
2019-01-22T03:17:58.270Z,97854.01
2019-01-22T03:20:44.432Z,97850.28
2019-01-22T03:23:31.584Z,97845.72
2019-01-22T03:26:03.039Z,97842.11
2019-01-22T03:28:55.577Z,97840.11
2019-01-22T03:31:42.295Z,97833.97
2019-01-22T03:34:16.427Z,97826.59
2019-01-22T03:37:04.163Z,97818.58
2019-01-22T03:39:51.081Z,97812.62
2019-01-22T03:42:28.053Z,97818.87
2019-01-22T03:45:17.160Z,97811.20
2019-01-22T03:47:48.616Z,97805.58
2019-01-22T03:50:32.146Z,97809.09
2019-01-22T03:53:03.593Z,97803.82
2019-01-22T03:55:44.153Z,97800.61
2019-01-22T03:58:12.555Z,97796.84
2019-01-22T04:00:41.683Z,97796.64
2019-01-22T04:03:10.354Z,97788.66
2019-01-22T04:05:39.346Z,97783.94
2019-01-22T04:08:08.248Z,97783.45
2019-01-22T04:10:36.730Z,97779.47
2019-01-22T04:13:05.652Z,97779.33
2019-01-22T04:15:36.692Z,97759.23
2019-01-22T04:18:05.647Z,97771.91
2019-01-22T04:20:34.125Z,97768.81
2019-01-22T04:23:02.931Z,97761.39
2019-01-22T04:25:43.582Z,97764.94
2019-01-22T04:28:24.149Z,97756.09
2019-01-22T04:31:01.409Z,97758.95
2019-01-22T04:34:01.965Z,97752.06
2019-01-22T04:36:48.403Z,97749.52
2019-01-22T04:39:23.016Z,97743.13
2019-01-22T04:42:00.433Z,97743.44
2019-01-22T04:44:47.296Z,97745.45
2019-01-22T04:47:30.443Z,97747.66
2019-01-22T04:50:19.273Z,97747.20
2019-01-22T04:52:56.650Z,97745.79
2019-01-22T04:55:43.105Z,97742.66
2019-01-22T04:58:14.575Z,97739.18
2019-01-22T05:01:08.774Z,97741.81
2019-01-22T05:03:55.616Z,97735.88
2019-01-22T05:06:36.578Z,97733.95
2019-01-22T05:09:13.917Z,97728.48
2019-01-22T05:12:03.253Z,97735.99
2019-01-22T05:14:44.021Z,97731.11
2019-01-22T05:17:27.436Z,97724.04
2019-01-22T05:19:59.189Z,97723.81
2019-01-22T05:22:36.309Z,97718.27
2019-01-22T05:25:19.844Z,97719.12
2019-01-22T05:27:57.216Z,97721.02
2019-01-22T05:30:37.868Z,97717.17
2019-01-22T05:33:30.682Z,97714.50
2019-01-22T05:36:20.627Z,97712.33
2019-01-22T05:39:19.260Z,97707.37
2019-01-22T05:41:56.643Z,97709.50
2019-01-22T05:44:28.094Z,97708.45
2019-01-22T05:47:05.556Z,97715.63
2019-01-22T05:49:45.813Z,97712.16
2019-01-22T05:52:20.232Z,97710.73
2019-01-22T05:55:03.738Z,97707.82
2019-01-22T05:57:34.294Z,97709.98
2019-01-22T06:00:14.483Z,97708.55
2019-01-22T06:02:46.351Z,97701.77
2019-01-22T06:05:39.247Z,97698.41
2019-01-22T06:08:19.771Z,97694.54
2019-01-22T06:11:18.411Z,97693.91
2019-01-22T06:14:01.959Z,97700.66
2019-01-22T06:16:39.042Z,97691.87
2019-01-22T06:19:28.194Z,97690.41
2019-01-22T06:22:02.767Z,97682.33
2019-01-22T06:24:42.864Z,97678.73
2019-01-22T06:27:14.327Z,97676.36
2019-01-22T06:29:51.683Z,97673.61
2019-01-22T06:32:32.356Z,97668.50
2019-01-22T06:35:15.852Z,97668.43
2019-01-22T06:37:56.563Z,97660.29
2019-01-22T06:40:59.928Z,97659.19
2019-01-22T06:43:42.992Z,97654.77
2019-01-22T06:46:20.109Z,97649.81
2019-01-22T06:49:00.362Z,97648.03
2019-01-22T06:51:49.942Z,97649.16
2019-01-22T06:54:42.235Z,97647.26
2019-01-22T06:57:42.407Z,97644.55
2019-01-22T07:00:47.082Z,97648.34
2019-01-22T07:03:24.411Z,97641.92
2019-01-22T07:06:04.222Z,97641.22
2019-01-22T07:08:58.726Z,97640.25
2019-01-22T07:11:39.029Z,97637.80
2019-01-22T07:14:43.781Z,97641.31
2019-01-22T07:17:18.022Z,97632.77
2019-01-22T07:20:01.871Z,97634.63
2019-01-22T07:22:39.211Z,97628.61
2019-01-22T07:25:22.399Z,97629.16
2019-01-22T07:28:05.981Z,97620.06
2019-01-22T07:31:05.847Z,97614.52
2019-01-22T07:33:48.366Z,97610.86
2019-01-22T07:36:19.836Z,97610.73
2019-01-22T07:39:08.760Z,97608.75
2019-01-22T07:41:52.384Z,97605.86
2019-01-22T07:44:32.880Z,97605.95
2019-01-22T07:47:16.810Z,97601.41
2019-01-22T07:49:56.912Z,97599.34
2019-01-22T07:52:43.210Z,97600.50
2019-01-22T07:55:17.394Z,97591.91
2019-01-22T07:58:05.814Z,97595.70
2019-01-22T08:00:46.696Z,97594.46
2019-01-22T08:03:22.493Z,97585.18
2019-01-22T08:05:55.585Z,97589.38
2019-01-22T08:08:41.959Z,97582.48
2019-01-22T08:11:19.371Z,97580.77
2019-01-22T08:13:56.554Z,97581.39
2019-01-22T08:16:46.028Z,97581.20
2019-01-22T08:19:35.333Z,97574.24
2019-01-22T08:22:15.321Z,97568.63
2019-01-22T08:25:07.545Z,97569.77
2019-01-22T08:27:59.449Z,97561.06
2019-01-22T08:30:30.921Z,97559.55
2019-01-22T08:33:08.204Z,97554.77
2019-01-22T08:35:54.638Z,97560.16
2019-01-22T08:38:38.361Z,97554.30
2019-01-22T08:41:35.517Z,97551.77
2019-01-22T08:44:28.091Z,97555.31
2019-01-22T08:47:02.573Z,97549.22
2019-01-22T08:49:46.417Z,97544.88
2019-01-22T08:52:29.977Z,97547.61
2019-01-22T08:55:25.626Z,97541.95
2019-01-22T08:57:57.096Z,97543.47
2019-01-22T09:00:37.734Z,97538.47
2019-01-22T09:03:33.608Z,97536.86
2019-01-22T09:06:10.823Z,97531.28
2019-01-22T09:09:00.571Z,97526.48
2019-01-22T09:11:41.210Z,97527.08
2019-01-22T09:14:12.678Z,97520.21
2019-01-22T09:16:53.343Z,97520.42
2019-01-22T09:19:24.820Z,97518.01
2019-01-22T09:21:59.329Z,97516.13
2019-01-22T09:24:33.866Z,97512.31
2019-01-22T09:27:08.379Z,97505.69
2019-01-22T09:29:49.054Z,97501.86
2019-01-22T09:32:29.585Z,97498.41
2019-01-22T09:35:21.987Z,97497.33
2019-01-22T09:37:50.678Z,97493.86
2019-01-22T09:40:19.322Z,97482.48
2019-01-22T09:42:48.005Z,97485.00
2019-01-22T09:45:16.694Z,97483.20
2019-01-22T09:47:45.114Z,97475.48
2019-01-22T09:50:13.742Z,97478.74
2019-01-22T09:52:42.385Z,97477.69
2019-01-22T09:55:13.688Z,97474.25
2019-01-22T09:57:42.100Z,97468.35
2019-01-22T10:00:50.395Z,97471.17
2019-01-22T10:03:18.803Z,97473.41
2019-01-22T10:05:47.193Z,97465.64
2019-01-22T10:08:15.861Z,97467.56
2019-01-22T10:10:44.555Z,97468.08
2019-01-22T10:13:13.123Z,97461.45
2019-01-22T10:15:41.531Z,97456.65
2019-01-22T10:18:09.928Z,97448.33
2019-01-22T10:20:38.333Z,97452.94
2019-01-22T10:23:46.923Z,97455.11
2019-01-22T10:26:15.309Z,97448.05
2019-01-22T10:28:43.703Z,97450.47
2019-01-22T10:31:12.115Z,97446.39
2019-01-22T10:33:40.822Z,97437.78
2019-01-22T10:36:09.216Z,97440.52
2019-01-22T10:38:37.880Z,97432.13
2019-01-22T10:41:06.269Z,97423.46
2019-01-22T10:43:34.674Z,97412.89
2019-01-22T10:46:03.065Z,97414.78
2019-01-22T10:48:31.465Z,97406.66
2019-01-22T10:50:59.854Z,97406.10
2019-01-22T10:53:28.251Z,97409.11
2019-01-22T10:55:56.637Z,97400.14
2019-01-22T10:58:25.032Z,97398.80
2019-01-22T11:00:53.427Z,97397.45
2019-01-22T11:03:22.079Z,97387.69
2019-01-22T11:05:50.467Z,97390.08
2019-01-22T11:08:18.854Z,97376.58
2019-01-22T11:10:47.326Z,97371.42
2019-01-22T11:13:15.718Z,97364.66
2019-01-22T11:15:44.117Z,97356.75
2019-01-22T11:18:12.508Z,97350.50
2019-01-22T11:20:41.236Z,97342.95
2019-01-22T11:23:09.619Z,97342.38
2019-01-22T11:26:17.932Z,97342.53
2019-01-22T11:28:46.322Z,97340.13
2019-01-22T11:31:14.719Z,97330.95
2019-01-22T11:33:43.106Z,97327.41
2019-01-22T11:36:11.508Z,97322.20
2019-01-22T11:38:39.899Z,97319.94
2019-01-22T11:41:08.300Z,97310.81
2019-01-22T11:43:36.690Z,97300.02
2019-01-22T11:46:05.394Z,97294.69
2019-01-22T11:48:33.790Z,97284.47
2019-01-22T11:51:02.174Z,97280.16
2019-01-22T11:53:30.572Z,97272.72
2019-01-22T11:55:58.962Z,97267.30
2019-01-22T11:58:27.674Z,97267.38
2019-01-22T12:00:56.066Z,97255.30
2019-01-22T12:03:24.471Z,97252.57
2019-01-22T12:05:53.375Z,97250.39
2019-01-22T12:08:22.964Z,97248.50
2019-01-22T12:10:51.359Z,97245.95
2019-01-22T12:13:19.907Z,97231.48
2019-01-22T12:15:48.580Z,97232.10
2019-01-22T12:18:16.968Z,97223.34
2019-01-22T12:21:05.008Z,97218.55
2019-01-22T12:23:33.389Z,97202.55
2019-01-22T12:26:01.794Z,97206.32
2019-01-22T12:28:30.248Z,97199.41
2019-01-22T12:30:58.649Z,97201.31
2019-01-22T12:33:27.300Z,97198.14
2019-01-22T12:35:55.684Z,97191.91
2019-01-22T12:38:24.082Z,97182.17
2019-01-22T12:40:52.473Z,97178.39
2019-01-22T12:43:21.125Z,97172.08
2019-01-22T12:45:49.515Z,97165.16
2019-01-22T12:48:18.189Z,97163.94
2019-01-22T12:50:46.975Z,97158.68
2019-01-22T12:53:15.380Z,97148.77
2019-01-22T12:55:43.832Z,97138.80
2019-01-22T12:58:12.536Z,97137.67
2019-01-22T13:00:40.924Z,97133.96
2019-01-22T13:03:09.378Z,97124.98
2019-01-22T13:05:57.186Z,97123.87
2019-01-22T13:08:25.573Z,97115.48
2019-01-22T13:11:13.308Z,97102.68
2019-01-22T13:13:41.693Z,97097.47
2019-01-22T13:16:10.160Z,97096.44
2019-01-22T13:18:38.544Z,97089.77
2019-01-22T13:21:07.113Z,97085.14
2019-01-22T13:23:35.849Z,97086.62
2019-01-22T13:28:59.290Z,97073.25
2019-01-22T13:31:27.749Z,97065.03
2019-01-22T13:33:56.488Z,97059.17
2019-01-22T13:36:25.110Z,97053.81
2019-01-22T13:38:53.509Z,97045.73
2019-01-22T13:41:22.237Z,97039.17
2019-01-22T13:43:50.925Z,97045.95
2019-01-22T13:46:19.308Z,97039.62
2019-01-22T13:48:47.710Z,97039.12
2019-01-22T13:51:16.097Z,97028.87
2019-01-22T13:53:44.502Z,97029.78
2019-01-22T13:56:18.474Z,97020.75
2019-01-22T13:58:43.271Z,97022.70
2019-01-22T14:01:11.677Z,97015.11
2019-01-22T14:03:40.067Z,97010.92
2019-01-22T14:06:08.471Z,97008.25
2019-01-22T14:08:36.853Z,97000.42
2019-01-22T14:11:05.320Z,96993.65
2019-01-22T14:13:33.706Z,96996.03
2019-01-22T14:16:02.180Z,96990.69
2019-01-22T14:18:30.569Z,96990.09
2019-01-22T14:20:58.951Z,96986.62
2019-01-22T14:23:27.348Z,96983.69
2019-01-22T14:25:55.741Z,96981.43
2019-01-22T14:28:24.403Z,96975.37
2019-01-22T14:30:52.791Z,96966.16
2019-01-22T14:33:21.471Z,96969.94
2019-01-22T14:35:49.870Z,96959.55
2019-01-22T14:38:18.531Z,96953.36
2019-01-22T14:40:46.930Z,96948.96
2019-01-22T14:43:15.594Z,96950.20
2019-01-22T14:45:43.999Z,96938.34
2019-01-22T14:48:12.386Z,96947.40
2019-01-22T14:50:40.785Z,96938.92
2019-01-22T14:53:09.164Z,96937.61
2019-01-22T14:55:37.569Z,96929.28
2019-01-22T14:58:05.958Z,96933.02
2019-01-22T15:00:34.339Z,96930.11
2019-01-22T15:03:02.878Z,96926.55
2019-01-22T15:05:31.577Z,96921.70
2019-01-22T15:07:59.984Z,96919.57
2019-01-22T15:10:28.685Z,96917.88
2019-01-22T15:13:37.233Z,96906.26
2019-01-22T15:16:05.888Z,96911.27
2019-01-22T15:18:34.365Z,96900.41
2019-01-22T15:21:02.761Z,96903.77
2019-01-22T15:23:31.165Z,96890.46
2019-01-22T15:25:59.816Z,96890.16
2019-01-22T15:28:28.203Z,96893.78
2019-01-22T15:30:56.837Z,96890.23
2019-01-22T15:33:25.220Z,96893.78
2019-01-22T15:35:53.624Z,96886.53
2019-01-22T15:38:22.323Z,96887.87
2019-01-22T15:40:50.733Z,96889.31
2019-01-22T15:43:19.118Z,96887.03
2019-01-22T15:45:47.520Z,96880.42
2019-01-22T15:48:35.511Z,96885.16
2019-01-22T15:51:04.059Z,96882.11
2019-01-22T15:53:32.450Z,96877.19
2019-01-22T15:56:00.837Z,96872.46
2019-01-22T15:58:29.235Z,96864.80
2019-01-22T16:00:57.621Z,96856.92
2019-01-22T16:03:26.026Z,96860.16
2019-01-22T16:05:54.766Z,96859.87
2019-01-22T16:08:23.157Z,96859.28
2019-01-22T16:10:51.686Z,96853.09
2019-01-22T16:13:20.412Z,96848.88
2019-01-22T16:15:49.096Z,96847.55
2019-01-22T16:18:17.484Z,96838.37
2019-01-22T16:20:46.122Z,96842.72
2019-01-22T16:23:14.578Z,96842.18
2019-01-22T16:25:42.976Z,96836.70
2019-01-22T16:28:11.370Z,96837.92
2019-01-22T16:30:40.088Z,96840.68
2019-01-22T16:33:08.478Z,96830.23
2019-01-22T16:35:36.864Z,96828.94
2019-01-22T16:38:05.342Z,96826.23
2019-01-22T16:40:33.733Z,96822.36
2019-01-22T16:43:02.139Z,96822.48
2019-01-22T16:46:10.696Z,96817.65
2019-01-22T16:48:39.100Z,96817.05
2019-01-22T16:51:07.771Z,96814.13
2019-01-22T16:53:36.430Z,96815.33
2019-01-22T16:56:04.969Z,96809.36
2019-01-22T16:58:33.636Z,96804.82
2019-01-22T17:01:02.116Z,96811.88
2019-01-22T17:03:30.736Z,96811.19
2019-01-22T17:05:59.128Z,96805.19
2019-01-22T17:08:27.542Z,96805.24
2019-01-22T17:11:15.254Z,96801.41
2019-01-22T17:13:43.662Z,96795.75
2019-01-22T17:16:12.047Z,96795.23
2019-01-22T17:18:40.455Z,96792.31
2019-01-22T17:21:08.840Z,96796.80
2019-01-22T17:23:37.244Z,96794.70
2019-01-22T17:26:24.974Z,96783.23
2019-01-22T17:28:53.698Z,96782.98
2019-01-22T17:31:41.197Z,96784.45
2019-01-22T17:34:09.909Z,96783.38
2019-01-22T17:36:38.538Z,96771.52
2019-01-22T17:39:46.849Z,96772.10
2019-01-22T17:42:15.242Z,96763.14
2019-01-22T17:44:43.637Z,96759.86
2019-01-22T17:47:12.036Z,96761.78
2019-01-22T17:49:40.739Z,96755.39
2019-01-22T17:52:09.137Z,96756.19
2019-01-22T17:54:37.529Z,96759.92
2019-01-22T17:57:14.068Z,96755.05
2019-01-22T17:59:42.881Z,96746.56
2019-01-22T18:02:11.267Z,96750.58
2019-01-22T18:04:39.669Z,96754.87
2019-01-22T18:07:08.061Z,96743.94
2019-01-22T18:09:36.467Z,96740.66
2019-01-22T18:12:04.993Z,96738.00
2019-01-22T18:14:33.404Z,96734.78
2019-01-22T18:17:02.040Z,96732.08
2019-01-22T18:19:30.430Z,96722.00
2019-01-22T18:21:58.902Z,96725.48
2019-01-22T18:24:27.289Z,96726.06
2019-01-22T18:26:56.041Z,96718.40
2019-01-22T18:29:24.436Z,96722.53
2019-01-22T18:31:53.105Z,96725.85
2019-01-22T18:34:21.499Z,96715.31
2019-01-22T18:36:49.904Z,96711.30
2019-01-22T18:39:18.294Z,96716.35
2019-01-22T18:41:46.712Z,96713.27
2019-01-22T18:44:15.134Z,96706.88
2019-01-22T18:46:43.550Z,96701.77
2019-01-22T18:49:12.239Z,96702.50
2019-01-22T18:51:40.677Z,96700.34
2019-01-22T18:54:09.454Z,96705.98
2019-01-22T18:56:37.860Z,96703.13
2019-01-22T18:59:06.341Z,96705.30
2019-01-22T19:01:34.982Z,96703.41
2019-01-22T19:06:58.272Z,96694.44
2019-01-22T19:09:26.665Z,96681.14
2019-01-22T19:14:29.486Z,96681.58
2019-01-22T19:16:58.241Z,96677.22
2019-01-22T19:19:26.910Z,96679.05
2019-01-22T19:21:55.332Z,96675.07
2019-01-22T19:24:23.741Z,96671.30
2019-01-22T19:26:52.157Z,96681.73
2019-01-22T19:29:20.554Z,96683.24
2019-01-22T19:31:48.949Z,96675.78
2019-01-22T19:34:17.709Z,96669.02
2019-01-22T19:37:05.739Z,96670.47
2019-01-22T19:39:34.435Z,96674.28
2019-01-22T19:42:02.832Z,96669.96
2019-01-22T19:44:31.492Z,96671.66
2019-01-22T19:47:00.173Z,96662.55
2019-01-22T19:49:28.591Z,96664.92
2019-01-22T19:51:56.984Z,96658.49
2019-01-22T19:54:25.717Z,96660.84
2019-01-22T19:56:54.118Z,96661.20
2019-01-22T19:59:22.798Z,96658.66
2019-01-22T20:01:51.207Z,96653.72
2019-01-22T20:04:19.643Z,96649.18
2019-01-22T20:06:47.995Z,96654.43
2019-01-22T20:09:16.642Z,96652.41
2019-01-22T20:11:45.077Z,96656.47
2019-01-22T20:14:13.714Z,96661.00
2019-01-22T20:16:42.154Z,96649.99
2019-01-22T20:19:10.548Z,96645.19
2019-01-22T20:21:39.018Z,96644.97
2019-01-22T20:24:07.742Z,96648.58
2019-01-22T20:26:36.142Z,96648.08
2019-01-22T20:29:04.543Z,96641.22
2019-01-22T20:31:32.951Z,96643.23
2019-01-22T20:34:01.343Z,96638.13
2019-01-22T20:36:29.737Z,96641.96
2019-01-22T20:38:58.498Z,96635.95
2019-01-22T20:41:27.144Z,96639.50
2019-01-22T20:44:15.210Z,96630.31
2019-01-22T20:46:43.606Z,96631.73
2019-01-22T20:49:12.013Z,96624.67
2019-01-22T20:51:41.139Z,96617.89
2019-01-22T20:54:10.539Z,96619.56
2019-01-22T20:56:38.930Z,96620.02
2019-01-22T20:59:07.338Z,96618.19
2019-01-22T21:01:35.734Z,96624.37
2019-01-22T21:06:59.109Z,96616.58
2019-01-22T21:09:27.517Z,96616.27
2019-01-22T21:11:56.365Z,96598.97
2019-01-22T21:14:24.846Z,96606.77
2019-01-22T21:16:53.281Z,96603.10
2019-01-22T21:19:22.114Z,96600.15
2019-01-22T21:21:50.626Z,96592.28
2019-01-22T21:24:19.033Z,96595.57
2019-01-22T21:26:47.781Z,96599.78
2019-01-22T21:29:16.555Z,96593.31
2019-01-22T21:31:44.975Z,96591.59
2019-01-22T21:34:13.472Z,96585.06
2019-01-22T21:36:42.203Z,96584.53
2019-01-22T21:39:10.606Z,96582.66
2019-01-22T21:41:39.257Z,96576.66
2019-01-22T21:44:07.656Z,96573.53
2019-01-22T21:46:36.062Z,96571.37
2019-01-22T21:49:16.749Z,96565.07
2019-01-22T21:51:34.922Z,96566.51
2019-01-22T21:54:03.607Z,96565.89
2019-01-22T21:56:32.289Z,96562.38
2019-01-22T21:59:00.977Z,96570.26
2019-01-22T22:01:29.381Z,96561.23
2019-01-22T22:03:57.775Z,96562.66
2019-01-22T22:06:26.537Z,96568.35
2019-01-22T22:08:55.206Z,96566.28
2019-01-22T22:11:23.893Z,96565.10
2019-01-22T22:13:52.302Z,96562.42
2019-01-22T22:16:20.695Z,96556.98
2019-01-22T22:18:49.097Z,96558.87
2019-01-22T22:21:17.497Z,96554.89
2019-01-22T22:23:45.906Z,96550.11
2019-01-22T22:26:14.573Z,96552.80
2019-01-22T22:28:42.980Z,96550.55
2019-01-22T22:31:11.374Z,96550.64
2019-01-22T22:33:39.781Z,96549.05
2019-01-22T22:36:08.173Z,96547.23
2019-01-22T22:38:36.571Z,96545.02
2019-01-22T22:41:04.979Z,96546.63
2019-01-22T22:43:33.374Z,96550.55
2019-01-22T22:46:01.785Z,96545.67
2019-01-22T22:48:30.178Z,96542.67
2019-01-22T22:50:58.570Z,96548.46
2019-01-22T22:53:26.973Z,96549.64
2019-01-22T22:55:55.438Z,96538.59
2019-01-22T22:58:24.119Z,96535.84
2019-01-22T23:01:32.481Z,96538.89
2019-01-22T23:04:00.878Z,96536.66
2019-01-22T23:06:29.342Z,96525.97
2019-01-22T23:08:57.780Z,96522.98
2019-01-22T23:11:45.478Z,96521.47
2019-01-22T23:14:13.889Z,96519.63
2019-01-22T23:16:42.585Z,96513.94
2019-01-22T23:19:10.996Z,96512.54
2019-01-22T23:21:39.629Z,96511.06
2019-01-22T23:24:08.024Z,96510.23
2019-01-22T23:26:36.676Z,96512.47
2019-01-22T23:29:44.994Z,96512.41
2019-01-22T23:32:14.054Z,96510.25
2019-01-22T23:34:44.021Z,96509.48
2019-01-22T23:37:12.710Z,96510.55
2019-01-22T23:39:41.107Z,96505.31
2019-01-22T23:42:09.515Z,96501.02
2019-01-22T23:44:37.904Z,96498.09
2019-01-22T23:47:25.654Z,96499.61
2019-01-22T23:49:54.371Z,96497.51
2019-01-22T23:52:22.781Z,96492.80
2019-01-22T23:55:10.877Z,96492.75
2019-01-22T23:57:39.336Z,96484.56
